sensor_id;sensor_type;location;lat;lon;timestamp;P1;durP1;ratioP1;P2;durP2;ratioP2
80854;SDS011;70272;49.222;-122.892;2023-08-20T00:02:10;8.35;;;5.38;;
80854;SDS011;70272;49.222;-122.892;2023-08-20T00:04:37;7.53;;;5.22;;
80854;SDS011;70272;49.222;-122.892;2023-08-20T00:07:03;9.55;;;6.10;;
80854;SDS011;70272;49.222;-122.892;2023-08-20T00:09:30;8.40;;;5.32;;
80854;SDS011;70272;49.222;-122.892;2023-08-20T00:11:56;7.60;;;5.45;;
80854;SDS011;70272;49.222;-122.892;2023-08-20T00:14:51;8.55;;;5.72;;
80854;SDS011;70272;49.222;-122.892;2023-08-20T00:17:23;8.25;;;5.80;;
80854;SDS011;70272;49.222;-122.892;2023-08-20T00:19:55;9.05;;;6.63;;
80854;SDS011;70272;49.222;-122.892;2023-08-20T00:22:22;9.18;;;6.78;;
80854;SDS011;70272;49.222;-122.892;2023-08-20T00:24:50;8.50;;;6.88;;
80854;SDS011;70272;49.222;-122.892;2023-08-20T00:27:20;8.65;;;7.00;;
80854;SDS011;70272;49.222;-122.892;2023-08-20T00:29:47;9.63;;;7.60;;
80854;SDS011;70272;49.222;-122.892;2023-08-20T00:32:14;11.10;;;7.47;;
80854;SDS011;70272;49.222;-122.892;2023-08-20T00:34:40;11.18;;;8.10;;
80854;SDS011;70272;49.222;-122.892;2023-08-20T00:37:07;9.23;;;7.85;;
80854;SDS011;70272;49.222;-122.892;2023-08-20T00:39:33;8.82;;;6.88;;
80854;SDS011;70272;49.222;-122.892;2023-08-20T00:41:59;10.15;;;7.45;;
80854;SDS011;70272;49.222;-122.892;2023-08-20T00:44:25;9.63;;;7.30;;
80854;SDS011;70272;49.222;-122.892;2023-08-20T00:46:52;9.80;;;7.18;;
80854;SDS011;70272;49.222;-122.892;2023-08-20T00:49:18;8.27;;;6.47;;
80854;SDS011;70272;49.222;-122.892;2023-08-20T00:51:45;8.80;;;6.30;;
80854;SDS011;70272;49.222;-122.892;2023-08-20T00:54:11;8.70;;;6.40;;
80854;SDS011;70272;49.222;-122.892;2023-08-20T00:56:37;9.00;;;6.97;;
80854;SDS011;70272;49.222;-122.892;2023-08-20T00:59:04;8.82;;;6.75;;
80854;SDS011;70272;49.222;-122.892;2023-08-20T01:01:31;8.18;;;6.03;;
80854;SDS011;70272;49.222;-122.892;2023-08-20T01:03:57;9.82;;;6.63;;
80854;SDS011;70272;49.222;-122.892;2023-08-20T01:09:12;9.77;;;7.30;;
80854;SDS011;70272;49.222;-122.892;2023-08-20T01:12:00;9.07;;;7.82;;
80854;SDS011;70272;49.222;-122.892;2023-08-20T01:14:28;8.75;;;6.93;;
80854;SDS011;70272;49.222;-122.892;2023-08-20T01:16:54;9.43;;;6.38;;
80854;SDS011;70272;49.222;-122.892;2023-08-20T01:19:21;9.73;;;6.90;;
80854;SDS011;70272;49.222;-122.892;2023-08-20T01:21:56;9.55;;;7.22;;
80854;SDS011;70272;49.222;-122.892;2023-08-20T01:29:43;9.88;;;7.38;;
80854;SDS011;70272;49.222;-122.892;2023-08-20T01:32:09;8.77;;;6.40;;
80854;SDS011;70272;49.222;-122.892;2023-08-20T01:34:36;9.10;;;6.95;;
80854;SDS011;70272;49.222;-122.892;2023-08-20T01:37:02;9.70;;;7.15;;
80854;SDS011;70272;49.222;-122.892;2023-08-20T01:39:28;10.48;;;7.80;;
80854;SDS011;70272;49.222;-122.892;2023-08-20T01:41:55;8.57;;;7.20;;
80854;SDS011;70272;49.222;-122.892;2023-08-20T01:44:21;9.25;;;6.80;;
80854;SDS011;70272;49.222;-122.892;2023-08-20T01:46:47;9.25;;;6.80;;
80854;SDS011;70272;49.222;-122.892;2023-08-20T01:49:13;8.88;;;6.93;;
80854;SDS011;70272;49.222;-122.892;2023-08-20T01:51:39;9.98;;;7.10;;
80854;SDS011;70272;49.222;-122.892;2023-08-20T01:54:06;9.13;;;6.35;;
80854;SDS011;70272;49.222;-122.892;2023-08-20T01:56:32;8.55;;;6.55;;
80854;SDS011;70272;49.222;-122.892;2023-08-20T01:58:58;8.80;;;6.53;;
80854;SDS011;70272;49.222;-122.892;2023-08-20T02:01:25;9.05;;;6.28;;
80854;SDS011;70272;49.222;-122.892;2023-08-20T02:03:52;7.28;;;6.00;;
80854;SDS011;70272;49.222;-122.892;2023-08-20T02:06:18;7.68;;;5.97;;
80854;SDS011;70272;49.222;-122.892;2023-08-20T02:08:44;7.88;;;5.72;;
80854;SDS011;70272;49.222;-122.892;2023-08-20T02:11:10;8.05;;;5.40;;
80854;SDS011;70272;49.222;-122.892;2023-08-20T02:13:37;6.85;;;5.10;;
80854;SDS011;70272;49.222;-122.892;2023-08-20T02:16:03;8.38;;;5.47;;
80854;SDS011;70272;49.222;-122.892;2023-08-20T02:18:30;8.63;;;5.70;;
80854;SDS011;70272;49.222;-122.892;2023-08-20T02:20:56;10.15;;;6.15;;
80854;SDS011;70272;49.222;-122.892;2023-08-20T02:23:23;8.48;;;5.43;;
80854;SDS011;70272;49.222;-122.892;2023-08-20T02:25:49;9.52;;;5.45;;
80854;SDS011;70272;49.222;-122.892;2023-08-20T02:28:16;7.78;;;5.53;;
80854;SDS011;70272;49.222;-122.892;2023-08-20T02:30:43;8.00;;;5.00;;
80854;SDS011;70272;49.222;-122.892;2023-08-20T02:33:10;8.10;;;5.25;;
80854;SDS011;70272;49.222;-122.892;2023-08-20T02:35:39;8.73;;;5.78;;
80854;SDS011;70272;49.222;-122.892;2023-08-20T02:38:06;10.18;;;5.50;;
80854;SDS011;70272;49.222;-122.892;2023-08-20T02:40:39;8.43;;;5.93;;
80854;SDS011;70272;49.222;-122.892;2023-08-20T02:43:06;7.95;;;5.78;;
80854;SDS011;70272;49.222;-122.892;2023-08-20T02:45:32;10.60;;;6.03;;
80854;SDS011;70272;49.222;-122.892;2023-08-20T02:47:59;8.57;;;6.10;;
80854;SDS011;70272;49.222;-122.892;2023-08-20T02:50:26;7.55;;;6.28;;
80854;SDS011;70272;49.222;-122.892;2023-08-20T02:52:52;8.85;;;6.22;;
80854;SDS011;70272;49.222;-122.892;2023-08-20T02:55:19;9.57;;;6.85;;
80854;SDS011;70272;49.222;-122.892;2023-08-20T02:57:45;9.60;;;6.65;;
80854;SDS011;70272;49.222;-122.892;2023-08-20T03:00:11;8.35;;;6.25;;
80854;SDS011;70272;49.222;-122.892;2023-08-20T03:02:39;8.55;;;6.57;;
80854;SDS011;70272;49.222;-122.892;2023-08-20T03:05:07;11.70;;;6.90;;
80854;SDS011;70272;49.222;-122.892;2023-08-20T03:07:35;10.07;;;6.85;;
80854;SDS011;70272;49.222;-122.892;2023-08-20T03:10:01;10.80;;;6.43;;
80854;SDS011;70272;49.222;-122.892;2023-08-20T03:12:28;8.80;;;6.25;;
80854;SDS011;70272;49.222;-122.892;2023-08-20T03:14:55;7.72;;;6.57;;
80854;SDS011;70272;49.222;-122.892;2023-08-20T03:17:21;7.57;;;6.20;;
80854;SDS011;70272;49.222;-122.892;2023-08-20T03:19:55;9.02;;;6.35;;
80854;SDS011;70272;49.222;-122.892;2023-08-20T03:22:22;9.13;;;6.80;;
80854;SDS011;70272;49.222;-122.892;2023-08-20T03:24:49;13.45;;;7.28;;
80854;SDS011;70272;49.222;-122.892;2023-08-20T03:27:16;7.93;;;6.15;;
80854;SDS011;70272;49.222;-122.892;2023-08-20T03:29:43;9.32;;;6.43;;
80854;SDS011;70272;49.222;-122.892;2023-08-20T03:32:09;9.43;;;6.60;;
80854;SDS011;70272;49.222;-122.892;2023-08-20T03:34:36;9.25;;;6.70;;
80854;SDS011;70272;49.222;-122.892;2023-08-20T03:37:02;9.93;;;7.13;;
80854;SDS011;70272;49.222;-122.892;2023-08-20T03:39:29;11.02;;;6.18;;
80854;SDS011;70272;49.222;-122.892;2023-08-20T03:41:56;11.45;;;6.72;;
80854;SDS011;70272;49.222;-122.892;2023-08-20T03:44:23;8.27;;;6.35;;
80854;SDS011;70272;49.222;-122.892;2023-08-20T03:46:49;9.43;;;6.22;;
80854;SDS011;70272;49.222;-122.892;2023-08-20T03:49:15;9.30;;;6.78;;
80854;SDS011;70272;49.222;-122.892;2023-08-20T03:51:42;9.57;;;6.40;;
80854;SDS011;70272;49.222;-122.892;2023-08-20T03:54:08;9.48;;;6.05;;
80854;SDS011;70272;49.222;-122.892;2023-08-20T03:56:35;8.43;;;6.65;;
80854;SDS011;70272;49.222;-122.892;2023-08-20T03:59:04;9.43;;;6.45;;
80854;SDS011;70272;49.222;-122.892;2023-08-20T04:01:30;9.88;;;6.60;;
80854;SDS011;70272;49.222;-122.892;2023-08-20T04:03:56;10.63;;;7.05;;
80854;SDS011;70272;49.222;-122.892;2023-08-20T04:06:23;8.60;;;7.18;;
80854;SDS011;70272;49.222;-122.892;2023-08-20T04:08:49;11.82;;;7.47;;
80854;SDS011;70272;49.222;-122.892;2023-08-20T04:11:15;10.13;;;7.18;;
80854;SDS011;70272;49.222;-122.892;2023-08-20T04:13:41;9.38;;;6.93;;
80854;SDS011;70272;49.222;-122.892;2023-08-20T04:16:09;9.57;;;6.68;;
80854;SDS011;70272;49.222;-122.892;2023-08-20T04:18:35;7.82;;;6.32;;
80854;SDS011;70272;49.222;-122.892;2023-08-20T04:21:01;9.30;;;6.65;;
80854;SDS011;70272;49.222;-122.892;2023-08-20T04:23:27;11.50;;;6.75;;
80854;SDS011;70272;49.222;-122.892;2023-08-20T04:25:54;8.50;;;6.25;;
80854;SDS011;70272;49.222;-122.892;2023-08-20T04:28:20;10.50;;;6.70;;
80854;SDS011;70272;49.222;-122.892;2023-08-20T04:30:51;10.90;;;7.95;;
80854;SDS011;70272;49.222;-122.892;2023-08-20T04:33:19;12.15;;;7.82;;
80854;SDS011;70272;49.222;-122.892;2023-08-20T04:35:46;10.95;;;7.80;;
80854;SDS011;70272;49.222;-122.892;2023-08-20T04:38:15;11.45;;;7.90;;
80854;SDS011;70272;49.222;-122.892;2023-08-20T04:40:41;11.48;;;8.15;;
80854;SDS011;70272;49.222;-122.892;2023-08-20T04:43:08;13.50;;;9.05;;
80854;SDS011;70272;49.222;-122.892;2023-08-20T04:45:34;12.50;;;8.38;;
80854;SDS011;70272;49.222;-122.892;2023-08-20T04:48:00;11.60;;;8.13;;
80854;SDS011;70272;49.222;-122.892;2023-08-20T04:50:26;10.65;;;7.50;;
80854;SDS011;70272;49.222;-122.892;2023-08-20T04:52:53;9.63;;;7.47;;
80854;SDS011;70272;49.222;-122.892;2023-08-20T04:55:20;9.63;;;7.07;;
80854;SDS011;70272;49.222;-122.892;2023-08-20T04:57:46;10.27;;;7.45;;
80854;SDS011;70272;49.222;-122.892;2023-08-20T05:00:12;11.45;;;7.32;;
80854;SDS011;70272;49.222;-122.892;2023-08-20T05:02:41;12.35;;;7.70;;
80854;SDS011;70272;49.222;-122.892;2023-08-20T05:05:07;10.75;;;7.35;;
80854;SDS011;70272;49.222;-122.892;2023-08-20T05:07:33;9.48;;;7.25;;
80854;SDS011;70272;49.222;-122.892;2023-08-20T05:10:00;11.30;;;7.50;;
80854;SDS011;70272;49.222;-122.892;2023-08-20T05:12:27;11.07;;;7.22;;
80854;SDS011;70272;49.222;-122.892;2023-08-20T05:14:54;9.18;;;6.82;;
80854;SDS011;70272;49.222;-122.892;2023-08-20T05:17:20;10.93;;;7.53;;
80854;SDS011;70272;49.222;-122.892;2023-08-20T05:19:46;11.77;;;8.60;;
80854;SDS011;70272;49.222;-122.892;2023-08-20T05:22:13;10.77;;;7.70;;
80854;SDS011;70272;49.222;-122.892;2023-08-20T05:24:39;12.32;;;8.02;;
80854;SDS011;70272;49.222;-122.892;2023-08-20T05:27:06;12.35;;;8.55;;
80854;SDS011;70272;49.222;-122.892;2023-08-20T05:29:48;12.85;;;7.38;;
80854;SDS011;70272;49.222;-122.892;2023-08-20T05:32:14;10.43;;;8.23;;
80854;SDS011;70272;49.222;-122.892;2023-08-20T05:34:41;10.98;;;8.18;;
80854;SDS011;70272;49.222;-122.892;2023-08-20T05:37:08;14.07;;;8.93;;
80854;SDS011;70272;49.222;-122.892;2023-08-20T05:39:40;12.30;;;8.60;;
80854;SDS011;70272;49.222;-122.892;2023-08-20T05:42:07;11.40;;;9.05;;
80854;SDS011;70272;49.222;-122.892;2023-08-20T05:44:33;12.18;;;9.73;;
80854;SDS011;70272;49.222;-122.892;2023-08-20T05:47:00;12.32;;;9.70;;
80854;SDS011;70272;49.222;-122.892;2023-08-20T05:49:26;15.10;;;10.18;;
80854;SDS011;70272;49.222;-122.892;2023-08-20T05:51:53;16.17;;;10.45;;
80854;SDS011;70272;49.222;-122.892;2023-08-20T05:54:19;19.27;;;12.15;;
80854;SDS011;70272;49.222;-122.892;2023-08-20T05:56:46;17.00;;;11.65;;
80854;SDS011;70272;49.222;-122.892;2023-08-20T05:59:12;14.38;;;11.45;;
80854;SDS011;70272;49.222;-122.892;2023-08-20T06:01:41;16.63;;;12.30;;
80854;SDS011;70272;49.222;-122.892;2023-08-20T06:04:08;17.48;;;12.18;;
80854;SDS011;70272;49.222;-122.892;2023-08-20T06:06:35;17.30;;;13.27;;
80854;SDS011;70272;49.222;-122.892;2023-08-20T06:09:01;17.70;;;13.27;;
80854;SDS011;70272;49.222;-122.892;2023-08-20T06:11:27;16.80;;;13.73;;
80854;SDS011;70272;49.222;-122.892;2023-08-20T06:13:54;19.92;;;14.18;;
80854;SDS011;70272;49.222;-122.892;2023-08-20T06:16:20;16.83;;;14.45;;
80854;SDS011;70272;49.222;-122.892;2023-08-20T06:18:46;19.80;;;15.30;;
80854;SDS011;70272;49.222;-122.892;2023-08-20T06:21:12;22.73;;;16.67;;
80854;SDS011;70272;49.222;-122.892;2023-08-20T06:23:39;21.90;;;16.55;;
80854;SDS011;70272;49.222;-122.892;2023-08-20T06:26:07;27.98;;;19.20;;
80854;SDS011;70272;49.222;-122.892;2023-08-20T06:28:33;26.30;;;19.50;;
80854;SDS011;70272;49.222;-122.892;2023-08-20T06:30:59;25.05;;;18.63;;
80854;SDS011;70272;49.222;-122.892;2023-08-20T06:33:25;25.80;;;20.13;;
80854;SDS011;70272;49.222;-122.892;2023-08-20T06:35:52;28.17;;;21.52;;
80854;SDS011;70272;49.222;-122.892;2023-08-20T06:38:18;28.08;;;21.27;;
80854;SDS011;70272;49.222;-122.892;2023-08-20T06:40:44;26.88;;;20.98;;
80854;SDS011;70272;49.222;-122.892;2023-08-20T06:43:10;28.10;;;21.05;;
80854;SDS011;70272;49.222;-122.892;2023-08-20T06:45:37;29.90;;;21.83;;
80854;SDS011;70272;49.222;-122.892;2023-08-20T06:48:03;28.55;;;22.20;;
80854;SDS011;70272;49.222;-122.892;2023-08-20T06:50:30;31.17;;;23.40;;
80854;SDS011;70272;49.222;-122.892;2023-08-20T06:52:56;29.63;;;23.52;;
80854;SDS011;70272;49.222;-122.892;2023-08-20T06:55:22;29.33;;;23.85;;
80854;SDS011;70272;49.222;-122.892;2023-08-20T06:57:48;32.05;;;24.20;;
80854;SDS011;70272;49.222;-122.892;2023-08-20T07:00:15;31.88;;;25.05;;
80854;SDS011;70272;49.222;-122.892;2023-08-20T07:02:41;35.33;;;25.65;;
80854;SDS011;70272;49.222;-122.892;2023-08-20T07:05:07;34.90;;;26.33;;
80854;SDS011;70272;49.222;-122.892;2023-08-20T07:07:35;35.78;;;26.55;;
80854;SDS011;70272;49.222;-122.892;2023-08-20T07:10:01;38.75;;;28.55;;
80854;SDS011;70272;49.222;-122.892;2023-08-20T07:12:28;37.55;;;28.52;;
80854;SDS011;70272;49.222;-122.892;2023-08-20T07:14:55;35.25;;;29.58;;
80854;SDS011;70272;49.222;-122.892;2023-08-20T07:17:21;43.40;;;32.03;;
80854;SDS011;70272;49.222;-122.892;2023-08-20T07:19:47;39.33;;;30.98;;
80854;SDS011;70272;49.222;-122.892;2023-08-20T07:22:14;43.13;;;32.85;;
80854;SDS011;70272;49.222;-122.892;2023-08-20T07:24:40;45.15;;;33.42;;
80854;SDS011;70272;49.222;-122.892;2023-08-20T07:27:06;47.83;;;36.42;;
80854;SDS011;70272;49.222;-122.892;2023-08-20T07:29:36;44.45;;;36.58;;
80854;SDS011;70272;49.222;-122.892;2023-08-20T07:32:03;47.75;;;38.65;;
80854;SDS011;70272;49.222;-122.892;2023-08-20T07:34:29;49.63;;;37.92;;
80854;SDS011;70272;49.222;-122.892;2023-08-20T07:37:01;49.65;;;39.42;;
80854;SDS011;70272;49.222;-122.892;2023-08-20T07:39:29;53.45;;;41.22;;
80854;SDS011;70272;49.222;-122.892;2023-08-20T07:41:55;48.50;;;39.55;;
80854;SDS011;70272;49.222;-122.892;2023-08-20T07:44:21;53.05;;;40.28;;
80854;SDS011;70272;49.222;-122.892;2023-08-20T07:46:48;51.95;;;39.20;;
80854;SDS011;70272;49.222;-122.892;2023-08-20T07:49:14;45.63;;;37.60;;
80854;SDS011;70272;49.222;-122.892;2023-08-20T07:51:40;52.83;;;37.60;;
80854;SDS011;70272;49.222;-122.892;2023-08-20T07:54:06;49.85;;;39.63;;
80854;SDS011;70272;49.222;-122.892;2023-08-20T07:56:32;47.08;;;38.17;;
80854;SDS011;70272;49.222;-122.892;2023-08-20T07:58:59;50.42;;;38.67;;
80854;SDS011;70272;49.222;-122.892;2023-08-20T08:01:25;49.78;;;38.33;;
80854;SDS011;70272;49.222;-122.892;2023-08-20T08:03:51;45.58;;;34.75;;
80854;SDS011;70272;49.222;-122.892;2023-08-20T08:06:17;46.35;;;33.08;;
80854;SDS011;70272;49.222;-122.892;2023-08-20T08:08:43;42.72;;;33.45;;
80854;SDS011;70272;49.222;-122.892;2023-08-20T08:11:10;43.90;;;33.13;;
80854;SDS011;70272;49.222;-122.892;2023-08-20T08:13:36;46.55;;;34.08;;
80854;SDS011;70272;49.222;-122.892;2023-08-20T08:16:02;46.03;;;33.75;;
80854;SDS011;70272;49.222;-122.892;2023-08-20T08:18:29;48.67;;;36.63;;
80854;SDS011;70272;49.222;-122.892;2023-08-20T08:20:55;51.22;;;38.58;;
80854;SDS011;70272;49.222;-122.892;2023-08-20T08:23:21;50.80;;;38.30;;
80854;SDS011;70272;49.222;-122.892;2023-08-20T08:25:47;51.38;;;39.45;;
80854;SDS011;70272;49.222;-122.892;2023-08-20T08:28:14;51.80;;;40.13;;
80854;SDS011;70272;49.222;-122.892;2023-08-20T08:30:40;51.75;;;39.78;;
80854;SDS011;70272;49.222;-122.892;2023-08-20T08:33:06;49.95;;;38.72;;
80854;SDS011;70272;49.222;-122.892;2023-08-20T08:35:32;48.15;;;37.83;;
80854;SDS011;70272;49.222;-122.892;2023-08-20T08:37:59;48.33;;;37.53;;
80854;SDS011;70272;49.222;-122.892;2023-08-20T08:40:27;56.58;;;40.00;;
80854;SDS011;70272;49.222;-122.892;2023-08-20T08:42:54;49.08;;;37.70;;
80854;SDS011;70272;49.222;-122.892;2023-08-20T08:45:21;49.63;;;36.45;;
80854;SDS011;70272;49.222;-122.892;2023-08-20T08:47:47;48.63;;;35.45;;
80854;SDS011;70272;49.222;-122.892;2023-08-20T08:50:14;46.67;;;35.03;;
80854;SDS011;70272;49.222;-122.892;2023-08-20T08:52:41;47.08;;;35.28;;
80854;SDS011;70272;49.222;-122.892;2023-08-20T08:55:07;45.17;;;33.47;;
80854;SDS011;70272;49.222;-122.892;2023-08-20T08:57:37;37.97;;;31.08;;
80854;SDS011;70272;49.222;-122.892;2023-08-20T09:00:03;41.33;;;30.80;;
80854;SDS011;70272;49.222;-122.892;2023-08-20T09:02:31;38.50;;;28.48;;
80854;SDS011;70272;49.222;-122.892;2023-08-20T09:04:57;38.83;;;28.30;;
80854;SDS011;70272;49.222;-122.892;2023-08-20T09:07:24;35.42;;;24.83;;
80854;SDS011;70272;49.222;-122.892;2023-08-20T09:09:50;29.92;;;24.10;;
80854;SDS011;70272;49.222;-122.892;2023-08-20T09:14:49;31.73;;;22.52;;
80854;SDS011;70272;49.222;-122.892;2023-08-20T09:17:16;29.13;;;21.80;;
80854;SDS011;70272;49.222;-122.892;2023-08-20T09:19:44;29.85;;;24.38;;
80854;SDS011;70272;49.222;-122.892;2023-08-20T09:22:14;32.70;;;23.02;;
80854;SDS011;70272;49.222;-122.892;2023-08-20T09:25:01;35.97;;;26.70;;
80854;SDS011;70272;49.222;-122.892;2023-08-20T09:27:28;37.25;;;28.17;;
80854;SDS011;70272;49.222;-122.892;2023-08-20T09:29:54;38.15;;;27.92;;
80854;SDS011;70272;49.222;-122.892;2023-08-20T09:32:24;38.10;;;28.77;;
80854;SDS011;70272;49.222;-122.892;2023-08-20T09:34:52;37.42;;;27.65;;
80854;SDS011;70272;49.222;-122.892;2023-08-20T09:37:20;37.88;;;29.20;;
80854;SDS011;70272;49.222;-122.892;2023-08-20T09:39:47;40.30;;;30.00;;
80854;SDS011;70272;49.222;-122.892;2023-08-20T09:42:13;38.08;;;28.60;;
80854;SDS011;70272;49.222;-122.892;2023-08-20T09:44:40;32.50;;;25.10;;
80854;SDS011;70272;49.222;-122.892;2023-08-20T09:47:10;38.40;;;26.50;;
80854;SDS011;70272;49.222;-122.892;2023-08-20T09:49:41;36.97;;;28.05;;
80854;SDS011;70272;49.222;-122.892;2023-08-20T09:52:09;35.72;;;25.92;;
80854;SDS011;70272;49.222;-122.892;2023-08-20T09:54:45;34.50;;;27.02;;
80854;SDS011;70272;49.222;-122.892;2023-08-20T09:57:37;36.03;;;24.73;;
80854;SDS011;70272;49.222;-122.892;2023-08-20T10:00:05;34.60;;;24.52;;
80854;SDS011;70272;49.222;-122.892;2023-08-20T10:02:35;33.45;;;24.10;;
80854;SDS011;70272;49.222;-122.892;2023-08-20T10:05:02;31.67;;;24.55;;
80854;SDS011;70272;49.222;-122.892;2023-08-20T10:07:31;35.13;;;23.75;;
80854;SDS011;70272;49.222;-122.892;2023-08-20T10:09:58;37.13;;;27.25;;
80854;SDS011;70272;49.222;-122.892;2023-08-20T10:12:29;36.25;;;26.80;;
80854;SDS011;70272;49.222;-122.892;2023-08-20T10:14:56;34.75;;;26.67;;
80854;SDS011;70272;49.222;-122.892;2023-08-20T10:17:23;35.25;;;25.42;;
80854;SDS011;70272;49.222;-122.892;2023-08-20T10:19:52;36.20;;;25.52;;
80854;SDS011;70272;49.222;-122.892;2023-08-20T10:22:19;31.85;;;24.73;;
80854;SDS011;70272;49.222;-122.892;2023-08-20T10:24:49;31.50;;;24.33;;
80854;SDS011;70272;49.222;-122.892;2023-08-20T10:29:53;31.95;;;23.45;;
80854;SDS011;70272;49.222;-122.892;2023-08-20T10:32:20;31.52;;;23.48;;
80854;SDS011;70272;49.222;-122.892;2023-08-20T10:35:07;34.55;;;24.48;;
80854;SDS011;70272;49.222;-122.892;2023-08-20T10:37:34;32.22;;;24.23;;
80854;SDS011;70272;49.222;-122.892;2023-08-20T10:40:02;31.95;;;23.50;;
80854;SDS011;70272;49.222;-122.892;2023-08-20T10:42:29;31.30;;;23.17;;
80854;SDS011;70272;49.222;-122.892;2023-08-20T10:45:05;31.60;;;24.20;;
80854;SDS011;70272;49.222;-122.892;2023-08-20T10:50:10;32.05;;;24.02;;
80854;SDS011;70272;49.222;-122.892;2023-08-20T10:52:41;32.70;;;23.13;;
80854;SDS011;70272;49.222;-122.892;2023-08-20T10:55:07;30.33;;;22.77;;
80854;SDS011;70272;49.222;-122.892;2023-08-20T10:57:35;33.65;;;23.23;;
80854;SDS011;70272;49.222;-122.892;2023-08-20T11:00:05;32.10;;;23.58;;
80854;SDS011;70272;49.222;-122.892;2023-08-20T11:02:40;32.08;;;24.02;;
80854;SDS011;70272;49.222;-122.892;2023-08-20T11:05:19;30.65;;;23.27;;
80854;SDS011;70272;49.222;-122.892;2023-08-20T11:07:49;31.50;;;22.95;;
80854;SDS011;70272;49.222;-122.892;2023-08-20T11:10:15;32.97;;;23.58;;
80854;SDS011;70272;49.222;-122.892;2023-08-20T11:12:43;33.00;;;23.77;;
80854;SDS011;70272;49.222;-122.892;2023-08-20T11:15:11;30.52;;;22.38;;
80854;SDS011;70272;49.222;-122.892;2023-08-20T11:17:47;34.00;;;23.60;;
80854;SDS011;70272;49.222;-122.892;2023-08-20T11:20:16;33.13;;;22.77;;
80854;SDS011;70272;49.222;-122.892;2023-08-20T11:22:43;32.25;;;23.15;;
80854;SDS011;70272;49.222;-122.892;2023-08-20T11:25:12;34.67;;;23.10;;
80854;SDS011;70272;49.222;-122.892;2023-08-20T11:27:45;31.38;;;21.90;;
80854;SDS011;70272;49.222;-122.892;2023-08-20T11:30:11;32.22;;;22.70;;
80854;SDS011;70272;49.222;-122.892;2023-08-20T11:32:38;33.63;;;22.23;;
80854;SDS011;70272;49.222;-122.892;2023-08-20T11:35:08;30.25;;;23.35;;
80854;SDS011;70272;49.222;-122.892;2023-08-20T11:37:34;31.85;;;22.55;;
80854;SDS011;70272;49.222;-122.892;2023-08-20T11:40:00;31.15;;;23.10;;
80854;SDS011;70272;49.222;-122.892;2023-08-20T11:42:27;33.28;;;24.45;;
80854;SDS011;70272;49.222;-122.892;2023-08-20T11:44:55;30.45;;;22.38;;
80854;SDS011;70272;49.222;-122.892;2023-08-20T11:47:22;31.73;;;22.52;;
80854;SDS011;70272;49.222;-122.892;2023-08-20T11:49:56;28.50;;;20.90;;
80854;SDS011;70272;49.222;-122.892;2023-08-20T11:52:30;30.25;;;22.50;;
80854;SDS011;70272;49.222;-122.892;2023-08-20T11:54:57;32.42;;;22.95;;
80854;SDS011;70272;49.222;-122.892;2023-08-20T11:57:24;30.33;;;22.17;;
80854;SDS011;70272;49.222;-122.892;2023-08-20T11:59:50;29.88;;;21.27;;
80854;SDS011;70272;49.222;-122.892;2023-08-20T12:02:24;28.92;;;21.65;;
80854;SDS011;70272;49.222;-122.892;2023-08-20T12:04:50;28.90;;;22.45;;
80854;SDS011;70272;49.222;-122.892;2023-08-20T12:07:17;30.60;;;21.52;;
80854;SDS011;70272;49.222;-122.892;2023-08-20T12:09:43;30.83;;;21.85;;
80854;SDS011;70272;49.222;-122.892;2023-08-20T12:12:09;29.23;;;20.33;;
80854;SDS011;70272;49.222;-122.892;2023-08-20T12:14:36;29.50;;;21.00;;
80854;SDS011;70272;49.222;-122.892;2023-08-20T12:17:02;30.45;;;21.75;;
80854;SDS011;70272;49.222;-122.892;2023-08-20T12:19:28;30.60;;;21.35;;
80854;SDS011;70272;49.222;-122.892;2023-08-20T12:21:55;32.97;;;21.13;;
80854;SDS011;70272;49.222;-122.892;2023-08-20T12:24:21;29.52;;;21.58;;
80854;SDS011;70272;49.222;-122.892;2023-08-20T12:26:48;27.63;;;21.70;;
80854;SDS011;70272;49.222;-122.892;2023-08-20T12:29:14;29.52;;;20.50;;
80854;SDS011;70272;49.222;-122.892;2023-08-20T12:31:40;29.10;;;21.25;;
80854;SDS011;70272;49.222;-122.892;2023-08-20T12:34:07;29.40;;;21.35;;
80854;SDS011;70272;49.222;-122.892;2023-08-20T12:36:34;31.80;;;21.73;;
80854;SDS011;70272;49.222;-122.892;2023-08-20T12:39:01;29.02;;;20.52;;
80854;SDS011;70272;49.222;-122.892;2023-08-20T12:41:29;32.28;;;20.90;;
80854;SDS011;70272;49.222;-122.892;2023-08-20T12:43:56;29.73;;;22.73;;
80854;SDS011;70272;49.222;-122.892;2023-08-20T12:46:23;27.98;;;21.92;;
80854;SDS011;70272;49.222;-122.892;2023-08-20T12:48:49;27.95;;;21.05;;
80854;SDS011;70272;49.222;-122.892;2023-08-20T12:51:16;30.52;;;22.65;;
80854;SDS011;70272;49.222;-122.892;2023-08-20T12:53:43;30.98;;;20.80;;
80854;SDS011;70272;49.222;-122.892;2023-08-20T12:56:09;32.45;;;22.23;;
80854;SDS011;70272;49.222;-122.892;2023-08-20T12:58:35;31.73;;;22.52;;
80854;SDS011;70272;49.222;-122.892;2023-08-20T13:01:02;30.83;;;23.35;;
80854;SDS011;70272;49.222;-122.892;2023-08-20T13:03:29;29.75;;;22.02;;
80854;SDS011;70272;49.222;-122.892;2023-08-20T13:05:55;32.38;;;22.83;;
80854;SDS011;70272;49.222;-122.892;2023-08-20T13:08:24;29.80;;;22.15;;
80854;SDS011;70272;49.222;-122.892;2023-08-20T13:10:52;31.77;;;22.52;;
80854;SDS011;70272;49.222;-122.892;2023-08-20T13:13:21;29.50;;;20.75;;
80854;SDS011;70272;49.222;-122.892;2023-08-20T13:15:48;33.03;;;21.48;;
80854;SDS011;70272;49.222;-122.892;2023-08-20T13:18:16;31.70;;;22.55;;
80854;SDS011;70272;49.222;-122.892;2023-08-20T13:20:42;30.80;;;21.02;;
80854;SDS011;70272;49.222;-122.892;2023-08-20T13:23:09;27.45;;;19.80;;
80854;SDS011;70272;49.222;-122.892;2023-08-20T13:25:35;27.48;;;20.80;;
80854;SDS011;70272;49.222;-122.892;2023-08-20T13:28:02;29.10;;;20.77;;
80854;SDS011;70272;49.222;-122.892;2023-08-20T13:30:28;28.77;;;19.92;;
80854;SDS011;70272;49.222;-122.892;2023-08-20T13:32:55;31.63;;;20.77;;
80854;SDS011;70272;49.222;-122.892;2023-08-20T13:35:21;27.00;;;19.63;;
80854;SDS011;70272;49.222;-122.892;2023-08-20T13:37:48;25.90;;;20.13;;
80854;SDS011;70272;49.222;-122.892;2023-08-20T13:40:14;27.15;;;19.48;;
80854;SDS011;70272;49.222;-122.892;2023-08-20T13:42:40;28.00;;;20.15;;
80854;SDS011;70272;49.222;-122.892;2023-08-20T13:45:07;29.42;;;20.27;;
80854;SDS011;70272;49.222;-122.892;2023-08-20T13:47:33;27.23;;;19.98;;
80854;SDS011;70272;49.222;-122.892;2023-08-20T13:50:00;28.38;;;19.55;;
80854;SDS011;70272;49.222;-122.892;2023-08-20T13:52:28;27.98;;;19.50;;
80854;SDS011;70272;49.222;-122.892;2023-08-20T13:54:54;25.98;;;20.42;;
80854;SDS011;70272;49.222;-122.892;2023-08-20T13:57:20;29.65;;;19.67;;
80854;SDS011;70272;49.222;-122.892;2023-08-20T13:59:47;26.42;;;18.55;;
80854;SDS011;70272;49.222;-122.892;2023-08-20T14:02:13;25.60;;;18.20;;
80854;SDS011;70272;49.222;-122.892;2023-08-20T14:04:39;24.65;;;18.05;;
80854;SDS011;70272;49.222;-122.892;2023-08-20T14:07:06;24.35;;;18.55;;
80854;SDS011;70272;49.222;-122.892;2023-08-20T14:09:35;25.70;;;19.27;;
80854;SDS011;70272;49.222;-122.892;2023-08-20T14:12:02;24.98;;;18.73;;